createdAt,value
2022-10-21T00:00:32.380Z,24.65
2022-10-21T00:02:58.718Z,19.92
2022-10-21T00:05:25.117Z,21.85
2022-10-21T00:07:51.536Z,20.38
2022-10-21T00:10:17.969Z,20.92
2022-10-21T00:12:44.296Z,20.42
2022-10-21T00:15:11.445Z,19.27
2022-10-21T00:17:39.293Z,17.83
2022-10-21T00:20:06.949Z,20.63
2022-10-21T00:22:33.518Z,17.88
2022-10-21T00:24:59.889Z,19.27
2022-10-21T00:27:26.702Z,22.67
2022-10-21T00:29:53.122Z,17.92
2022-10-21T00:32:19.561Z,18.58
2022-10-21T00:34:46.909Z,20.67
2022-10-21T00:37:13.841Z,20.42
2022-10-21T00:39:40.344Z,19.88
2022-10-21T00:42:07.836Z,20.08
2022-10-21T00:44:35.272Z,22.55
2022-10-21T00:47:03.853Z,21.48
2022-10-21T00:49:30.212Z,22.58
2022-10-21T00:51:58.754Z,24.65
2022-10-21T00:54:26.252Z,21.52
2022-10-21T00:56:54.258Z,19.13
2022-10-21T00:59:22.475Z,24.55
2022-10-21T01:01:49.220Z,22.20
2022-10-21T01:04:15.614Z,24.45
2022-10-21T01:06:42.307Z,23.83
2022-10-21T01:09:08.863Z,22.48
2022-10-21T01:11:42.499Z,22.95
2022-10-21T01:14:19.459Z,25.27
2022-10-21T01:16:50.422Z,25.45
2022-10-21T01:19:16.784Z,22.77
2022-10-21T01:21:53.832Z,25.10
2022-10-21T01:24:45.871Z,24.75
2022-10-21T01:27:24.592Z,22.00
2022-10-21T01:30:09.913Z,26.10
2022-10-21T01:32:40.566Z,29.23
2022-10-21T01:35:26.564Z,26.17
2022-10-21T01:38:06.789Z,22.73
2022-10-21T01:40:35.901Z,24.33
2022-10-21T01:43:08.049Z,26.42
2022-10-21T01:45:49.466Z,27.25
2022-10-21T01:48:20.753Z,25.88
2022-10-21T01:50:49.959Z,25.92
2022-10-21T01:53:16.994Z,26.35
2022-10-21T01:55:45.136Z,27.88
2022-10-21T01:58:31.273Z,21.17
2022-10-21T02:00:59.684Z,26.38
2022-10-21T02:03:28.653Z,25.02
2022-10-21T02:05:55.018Z,25.35
2022-10-21T02:08:21.436Z,25.33
2022-10-21T02:10:49.349Z,26.80
2022-10-21T02:13:18.526Z,25.35
2022-10-21T02:15:44.970Z,27.77
2022-10-21T02:18:19.033Z,29.33
2022-10-21T02:20:45.410Z,25.02
2022-10-21T02:23:13.491Z,25.35
2022-10-21T02:25:41.816Z,22.23
2022-10-21T02:28:08.403Z,22.65
2022-10-21T02:30:41.352Z,24.35
2022-10-21T02:33:12.229Z,26.40
2022-10-21T02:35:57.972Z,22.55
2022-10-21T02:38:33.298Z,24.75
2022-10-21T02:41:04.494Z,23.58
2022-10-21T02:43:33.116Z,24.52
2022-10-21T02:46:00.585Z,26.83
2022-10-21T02:48:26.970Z,26.55
2022-10-21T02:50:53.351Z,25.15
2022-10-21T02:53:19.681Z,25.63
2022-10-21T02:55:46.009Z,27.92
2022-10-21T02:58:12.358Z,22.15
2022-10-21T03:00:38.856Z,26.25
2022-10-21T03:03:05.289Z,33.72
2022-10-21T03:08:03.010Z,21.65
2022-10-21T03:10:29.321Z,21.48
2022-10-21T03:12:55.637Z,25.55
2022-10-21T03:15:22.001Z,26.92
2022-10-21T03:17:48.420Z,22.10
2022-10-21T03:20:14.946Z,23.15
2022-10-21T03:22:41.310Z,24.63
2022-10-21T03:25:08.037Z,23.48
2022-10-21T03:27:34.430Z,23.42
2022-10-21T03:30:00.762Z,22.75
2022-10-21T03:32:27.102Z,20.33
2022-10-21T03:34:53.512Z,23.60
2022-10-21T03:37:19.926Z,25.45
2022-10-21T03:39:47.313Z,24.52
2022-10-21T03:42:13.785Z,24.45
2022-10-21T03:44:40.851Z,25.08
2022-10-21T03:47:07.373Z,23.30
2022-10-21T03:52:05.214Z,25.17
2022-10-21T03:54:31.583Z,22.13
2022-10-21T03:56:57.904Z,24.35
2022-10-21T03:59:24.361Z,23.58
2022-10-21T04:01:50.764Z,26.13
2022-10-21T04:04:17.168Z,27.05
2022-10-21T04:06:43.590Z,22.30
2022-10-21T04:09:09.983Z,25.55
2022-10-21T04:11:36.473Z,24.60
2022-10-21T04:14:03.026Z,27.50
2022-10-21T04:16:29.465Z,24.58
2022-10-21T04:18:55.908Z,20.45
2022-10-21T04:23:49.651Z,27.73
2022-10-21T04:26:17.217Z,21.17
2022-10-21T04:28:43.557Z,22.17
2022-10-21T04:31:10.418Z,24.52
2022-10-21T04:33:36.825Z,21.48
2022-10-21T04:36:03.234Z,22.15
2022-10-21T04:38:29.670Z,20.38
2022-10-21T04:41:00.510Z,19.80
2022-10-21T04:43:27.277Z,21.90
2022-10-21T04:45:53.785Z,24.13
2022-10-21T04:48:20.566Z,21.98
2022-10-21T04:50:50.849Z,22.70
2022-10-21T04:53:17.348Z,18.65
2022-10-21T04:55:44.107Z,21.25
2022-10-21T04:58:10.456Z,22.42
2022-10-21T05:00:36.945Z,22.75
2022-10-21T05:03:03.732Z,21.55
2022-10-21T05:05:30.106Z,22.05
2022-10-21T05:07:56.392Z,22.70
2022-10-21T05:10:23.794Z,25.45
2022-10-21T05:12:50.172Z,24.17
2022-10-21T05:15:16.564Z,23.08
2022-10-21T05:17:42.940Z,20.77
2022-10-21T05:20:09.519Z,21.58
2022-10-21T05:22:36.268Z,26.23
2022-10-21T05:25:02.958Z,20.80
2022-10-21T05:27:29.317Z,23.48
2022-10-21T05:29:56.509Z,22.80
2022-10-21T05:32:24.265Z,25.05
2022-10-21T05:34:50.775Z,22.85
2022-10-21T05:37:17.213Z,17.75
2022-10-21T05:39:44.518Z,23.83
2022-10-21T05:42:10.865Z,21.83
2022-10-21T05:44:38.182Z,24.13
2022-10-21T05:47:04.584Z,21.30
2022-10-21T05:49:30.926Z,22.67
2022-10-21T05:51:57.409Z,18.20
2022-10-21T05:54:23.696Z,18.33
2022-10-21T05:56:49.941Z,18.08
2022-10-21T05:59:16.325Z,20.77
2022-10-21T06:01:42.740Z,19.38
2022-10-21T06:04:09.051Z,20.00
2022-10-21T06:06:35.349Z,19.10
2022-10-21T06:09:02.175Z,20.00
2022-10-21T06:11:28.526Z,17.83
2022-10-21T06:13:54.912Z,15.23
2022-10-21T06:16:21.278Z,21.40
2022-10-21T06:18:47.576Z,18.65
2022-10-21T06:21:13.904Z,17.65
2022-10-21T06:23:40.254Z,16.63
2022-10-21T06:26:07.809Z,17.27
2022-10-21T06:28:35.257Z,20.80
2022-10-21T06:31:01.993Z,18.60
2022-10-21T06:33:28.332Z,17.10
2022-10-21T06:35:55.187Z,20.15
2022-10-21T06:38:21.679Z,20.52
2022-10-21T06:40:48.772Z,18.80
2022-10-21T06:43:15.895Z,17.75
2022-10-21T06:45:42.274Z,18.50
2022-10-21T06:48:08.618Z,16.42
2022-10-21T06:50:36.577Z,20.48
2022-10-21T06:53:02.918Z,19.67
2022-10-21T06:55:29.291Z,16.58
2022-10-21T06:57:55.584Z,16.88
2022-10-21T07:00:22.080Z,17.02
2022-10-21T07:02:48.774Z,14.27
2022-10-21T07:05:15.116Z,16.38
2022-10-21T07:07:41.840Z,15.63
2022-10-21T07:10:08.320Z,14.55
2022-10-21T07:12:34.676Z,19.08
2022-10-21T07:15:01.025Z,19.80
2022-10-21T07:17:28.696Z,15.90
2022-10-21T07:19:55.017Z,16.95
2022-10-21T07:22:21.352Z,15.63
2022-10-21T07:24:47.723Z,20.90
2022-10-21T07:27:14.110Z,17.17
2022-10-21T07:29:40.477Z,13.52
2022-10-21T07:32:06.825Z,18.73
2022-10-21T07:34:33.174Z,14.68
2022-10-21T07:36:59.511Z,15.10
2022-10-21T07:39:26.479Z,12.18
2022-10-21T07:41:54.278Z,14.23
2022-10-21T07:44:21.806Z,13.82
2022-10-21T07:46:48.913Z,16.73
2022-10-21T07:49:16.385Z,14.10
2022-10-21T07:51:43.535Z,17.13
2022-10-21T07:54:09.867Z,16.95
2022-10-21T07:56:40.781Z,15.27
2022-10-21T07:59:12.487Z,12.73
2022-10-21T08:01:40.424Z,13.23
2022-10-21T08:04:06.900Z,14.38
2022-10-21T08:06:33.308Z,12.52
2022-10-21T08:08:59.791Z,16.73
2022-10-21T08:11:27.576Z,12.20
2022-10-21T08:13:54.456Z,13.45
2022-10-21T08:16:20.996Z,16.40
2022-10-21T08:18:47.672Z,19.15
2022-10-21T08:21:14.284Z,10.90
2022-10-21T08:23:40.722Z,10.80
2022-10-21T08:26:08.164Z,11.43
2022-10-21T08:28:34.476Z,11.90
2022-10-21T08:31:05.428Z,13.82
2022-10-21T08:33:32.090Z,15.20
2022-10-21T08:35:58.949Z,13.40
2022-10-21T08:38:25.273Z,11.30
2022-10-21T08:40:54.930Z,13.05
2022-10-21T08:43:27.213Z,11.30
2022-10-21T08:46:04.393Z,13.30
2022-10-21T08:48:33.336Z,10.05
2022-10-21T08:51:00.014Z,9.88
2022-10-21T08:53:36.625Z,12.25
2022-10-21T08:56:09.360Z,9.15
2022-10-21T08:58:35.717Z,11.95
2022-10-21T09:01:09.864Z,10.98
2022-10-21T09:03:44.965Z,11.73
2022-10-21T09:06:15.252Z,8.95
2022-10-21T09:09:00.256Z,10.80
2022-10-21T09:11:29.639Z,11.10
2022-10-21T09:14:02.094Z,10.05
2022-10-21T09:16:32.835Z,10.05
2022-10-21T09:18:59.119Z,8.65
2022-10-21T09:21:28.437Z,11.02
2022-10-21T09:24:09.747Z,10.90
2022-10-21T09:26:36.020Z,12.55
2022-10-21T09:29:21.315Z,9.15
2022-10-21T09:31:54.323Z,10.73
2022-10-21T09:34:31.156Z,11.57
2022-10-21T09:36:57.827Z,8.70
2022-10-21T09:39:37.625Z,12.93
2022-10-21T09:42:11.484Z,9.13
2022-10-21T09:44:45.301Z,11.77
2022-10-21T09:47:19.725Z,10.13
2022-10-21T09:50:18.246Z,10.25
2022-10-21T09:52:36.180Z,9.25
2022-10-21T09:55:03.275Z,9.63
2022-10-21T09:57:29.588Z,9.57
2022-10-21T09:59:58.708Z,10.82
2022-10-21T10:02:31.393Z,11.20
2022-10-21T10:04:57.756Z,7.00
2022-10-21T10:07:29.821Z,11.18
2022-10-21T10:09:56.121Z,9.02
2022-10-21T10:12:24.363Z,11.13
2022-10-21T10:14:51.060Z,12.57
2022-10-21T10:17:20.395Z,12.48
2022-10-21T10:20:05.295Z,12.63
2022-10-21T10:22:33.240Z,10.25
2022-10-21T10:25:08.681Z,12.70
2022-10-21T10:27:35.113Z,11.25
2022-10-21T10:30:01.676Z,10.55
2022-10-21T10:32:33.573Z,8.20
2022-10-21T10:35:03.044Z,10.77
2022-10-21T10:37:33.160Z,12.80
2022-10-21T10:40:01.036Z,11.85
2022-10-21T10:42:29.411Z,11.65
2022-10-21T10:44:57.488Z,8.52
2022-10-21T10:47:28.952Z,16.65
2022-10-21T10:49:55.309Z,10.00
2022-10-21T10:52:24.089Z,10.05
2022-10-21T10:55:08.873Z,10.15
2022-10-21T10:57:44.404Z,8.55
2022-10-21T11:00:22.236Z,8.88
2022-10-21T11:02:57.168Z,9.52
2022-10-21T11:05:56.020Z,8.40
2022-10-21T11:08:31.917Z,8.82
2022-10-21T11:11:02.674Z,9.10
2022-10-21T11:13:29.025Z,7.78
2022-10-21T11:16:19.192Z,10.40
2022-10-21T11:18:49.356Z,9.52
2022-10-21T11:21:33.773Z,9.68
2022-10-21T11:24:00.112Z,7.97
2022-10-21T11:26:33.124Z,8.52
2022-10-21T11:29:12.583Z,10.02
2022-10-21T11:32:10.557Z,12.63
2022-10-21T11:34:50.103Z,8.73
2022-10-21T11:37:24.789Z,7.03
2022-10-21T11:40:03.368Z,10.43
2022-10-21T11:42:40.739Z,6.82
2022-10-21T11:45:28.700Z,8.68
2022-10-21T11:48:07.018Z,9.38
2022-10-21T11:50:43.869Z,9.18
2022-10-21T11:53:19.303Z,8.20
2022-10-21T11:56:04.424Z,8.73
2022-10-21T11:58:43.680Z,9.25
2022-10-21T12:01:14.773Z,10.45
2022-10-21T12:03:41.079Z,4.22
2022-10-21T12:06:15.794Z,4.90
2022-10-21T12:08:49.467Z,7.85
2022-10-21T12:11:21.810Z,9.75
2022-10-21T12:13:50.940Z,8.50
2022-10-21T12:16:23.480Z,7.00
2022-10-21T12:18:51.214Z,3.92
2022-10-21T12:21:19.784Z,3.22
2022-10-21T12:23:47.309Z,4.20
2022-10-21T12:26:21.390Z,3.50
2022-10-21T12:28:59.568Z,3.72
2022-10-21T12:31:33.142Z,3.55
2022-10-21T12:33:59.648Z,5.57
2022-10-21T12:36:38.467Z,6.28
2022-10-21T12:39:06.441Z,5.25
2022-10-21T12:41:34.888Z,3.67
2022-10-21T12:44:01.173Z,4.97
2022-10-21T12:46:44.626Z,6.57
2022-10-21T12:49:19.532Z,6.72
2022-10-21T12:51:51.173Z,3.53
2022-10-21T12:54:19.491Z,3.83
2022-10-21T12:56:49.940Z,6.07
2022-10-21T12:59:25.248Z,4.45
2022-10-21T13:02:07.781Z,4.13
2022-10-21T13:07:01.436Z,5.00
2022-10-21T13:09:47.488Z,5.95
2022-10-21T13:12:16.469Z,4.40
2022-10-21T13:14:50.137Z,8.15
2022-10-21T13:17:16.476Z,7.32
2022-10-21T13:19:42.787Z,3.28
2022-10-21T13:22:11.263Z,4.20
2022-10-21T13:24:37.881Z,9.35
2022-10-21T13:27:24.588Z,5.55
2022-10-21T13:29:51.237Z,4.88
2022-10-21T13:32:17.834Z,4.20
2022-10-21T13:34:58.917Z,8.77
2022-10-21T13:37:42.711Z,6.35
2022-10-21T13:40:16.404Z,5.35
2022-10-21T13:42:44.504Z,4.25
2022-10-21T13:45:28.453Z,9.13
2022-10-21T13:48:06.696Z,15.35
2022-10-21T13:50:38.350Z,7.07
2022-10-21T13:53:18.479Z,5.10
2022-10-21T13:55:58.980Z,1.70
2022-10-21T13:58:25.916Z,5.13
2022-10-21T14:00:57.757Z,5.28
2022-10-21T14:03:25.489Z,1.58
2022-10-21T14:05:59.200Z,7.68
2022-10-21T14:08:25.496Z,1.20
2022-10-21T14:10:52.591Z,2.45
2022-10-21T14:13:21.733Z,2.80
2022-10-21T14:15:49.077Z,4.03
2022-10-21T14:18:24.461Z,1.38
2022-10-21T14:20:53.969Z,4.65
2022-10-21T14:23:20.989Z,1.45
2022-10-21T14:25:48.443Z,2.47
2022-10-21T14:28:15.101Z,1.70
2022-10-21T14:30:41.902Z,2.80
2022-10-21T14:33:15.130Z,2.22
2022-10-21T14:35:42.081Z,1.98
2022-10-21T14:38:29.234Z,3.20
2022-10-21T14:40:58.312Z,0.50
2022-10-21T14:43:31.007Z,2.83
2022-10-21T14:45:57.373Z,4.38
2022-10-21T14:48:26.821Z,1.50
2022-10-21T14:51:05.370Z,5.57
2022-10-21T14:53:34.398Z,5.38
2022-10-21T14:56:01.717Z,2.72
2022-10-21T14:58:38.085Z,2.70
2022-10-21T15:01:12.101Z,3.80
2022-10-21T15:03:38.453Z,3.63
2022-10-21T15:06:24.646Z,2.92
2022-10-21T15:08:57.072Z,3.63
2022-10-21T15:11:26.358Z,1.05
2022-10-21T15:14:00.102Z,5.80
2022-10-21T15:16:28.308Z,3.83
2022-10-21T15:18:54.825Z,4.78
2022-10-21T15:21:33.205Z,2.47
2022-10-21T15:23:59.877Z,1.25
2022-10-21T15:26:37.770Z,3.13
2022-10-21T15:29:14.724Z,1.67
2022-10-21T15:31:41.693Z,2.53
2022-10-21T15:34:11.061Z,3.90
2022-10-21T15:36:37.659Z,2.63
2022-10-21T15:39:06.790Z,5.28
2022-10-21T15:41:35.769Z,4.03
2022-10-21T15:44:03.530Z,5.85
2022-10-21T15:46:32.960Z,6.32
2022-10-21T15:49:05.449Z,2.33
2022-10-21T15:53:58.044Z,15.75
2022-10-21T15:56:24.476Z,8.27
2022-10-21T15:58:50.812Z,9.95
2022-10-21T16:01:17.582Z,6.47
2022-10-21T16:03:44.512Z,3.83
2022-10-21T16:06:15.906Z,2.75
2022-10-21T16:08:42.254Z,4.97
2022-10-21T16:13:43.972Z,6.85
2022-10-21T16:16:17.485Z,4.55
2022-10-21T16:18:43.878Z,9.90
2022-10-21T16:21:14.252Z,11.73
2022-10-21T16:23:41.184Z,9.80
2022-10-21T16:26:13.389Z,6.07
2022-10-21T16:28:39.684Z,8.55
2022-10-21T16:31:09.075Z,16.95
2022-10-21T16:33:35.397Z,22.00
2022-10-21T16:36:01.886Z,41.60
2022-10-21T16:38:28.187Z,39.88
2022-10-21T16:40:54.673Z,23.25
2022-10-21T16:43:20.970Z,18.25
2022-10-21T16:45:47.353Z,47.15
2022-10-21T16:48:13.733Z,26.25
2022-10-21T16:50:43.622Z,26.42
2022-10-21T16:53:13.385Z,18.05
2022-10-21T16:55:39.764Z,20.95
2022-10-21T16:58:06.096Z,20.52
2022-10-21T17:00:32.551Z,14.48
2022-10-21T17:02:58.913Z,12.55
2022-10-21T17:05:25.559Z,9.25
2022-10-21T17:07:51.943Z,12.05
2022-10-21T17:10:18.341Z,14.55
2022-10-21T17:12:44.792Z,11.43
2022-10-21T17:15:14.041Z,12.27
2022-10-21T17:17:40.603Z,15.18
2022-10-21T17:20:07.365Z,24.30
2022-10-21T17:22:33.687Z,15.88
2022-10-21T17:25:00.183Z,16.73
2022-10-21T17:27:26.560Z,15.30
2022-10-21T17:29:52.880Z,17.50
2022-10-21T17:32:19.469Z,10.82
2022-10-21T17:34:45.846Z,10.70
2022-10-21T17:37:12.328Z,15.43
2022-10-21T17:39:38.673Z,19.60
2022-10-21T17:42:05.024Z,18.58
2022-10-21T17:44:31.341Z,18.35
2022-10-21T17:46:57.861Z,50.75
2022-10-21T17:49:24.824Z,60.03
2022-10-21T17:51:51.212Z,36.50
2022-10-21T17:54:18.073Z,27.45
2022-10-21T17:56:45.044Z,52.22
2022-10-21T17:59:12.104Z,42.20
2022-10-21T18:01:38.583Z,34.67
2022-10-21T18:04:05.028Z,38.65
2022-10-21T18:06:31.432Z,53.65
2022-10-21T18:08:58.430Z,43.75
2022-10-21T18:11:24.915Z,30.60
2022-10-21T18:13:55.045Z,31.98
2022-10-21T18:16:22.039Z,17.27
2022-10-21T18:18:49.014Z,21.33
2022-10-21T18:21:16.574Z,17.05
2022-10-21T18:23:43.809Z,11.55
2022-10-21T18:26:14.981Z,11.68
2022-10-21T18:28:41.333Z,14.10
2022-10-21T18:31:07.724Z,11.07
2022-10-21T18:33:34.117Z,8.50
2022-10-21T18:36:07.741Z,7.28
2022-10-21T18:38:34.073Z,9.15
2022-10-21T18:41:18.964Z,6.13
2022-10-21T18:43:48.012Z,12.57
2022-10-21T18:46:14.429Z,14.63
2022-10-21T18:48:41.145Z,10.23
2022-10-21T18:51:08.221Z,10.88
2022-10-21T18:53:35.908Z,12.02
2022-10-21T18:56:03.164Z,7.57
2022-10-21T18:58:33.175Z,5.90
2022-10-21T19:00:59.917Z,6.65
2022-10-21T19:03:26.861Z,11.60
2022-10-21T19:05:53.348Z,7.28
2022-10-21T19:08:19.769Z,7.63
2022-10-21T19:10:46.544Z,11.10
2022-10-21T19:13:12.921Z,10.88
2022-10-21T19:15:39.333Z,12.38
2022-10-21T19:18:05.697Z,13.10
2022-10-21T19:20:32.005Z,9.65
2022-10-21T19:22:58.330Z,8.32
2022-10-21T19:25:24.725Z,6.15
2022-10-21T19:27:51.073Z,6.70
2022-10-21T19:30:17.469Z,7.13
2022-10-21T19:32:43.803Z,6.82
2022-10-21T19:35:10.094Z,10.50
2022-10-21T19:37:36.450Z,9.27
2022-10-21T19:40:02.806Z,13.45
2022-10-21T19:42:29.168Z,10.23
2022-10-21T19:44:55.521Z,7.85
2022-10-21T19:47:21.858Z,7.60
2022-10-21T19:49:48.490Z,26.58
2022-10-21T19:52:14.830Z,37.40
2022-10-21T19:54:41.177Z,48.00
2022-10-21T19:57:07.488Z,96.80
2022-10-21T19:59:33.803Z,45.28
2022-10-21T20:02:00.125Z,18.77
2022-10-21T20:04:26.668Z,38.85
2022-10-21T20:06:53.076Z,25.05
2022-10-21T20:09:19.466Z,64.18
2022-10-21T20:11:45.793Z,75.45
2022-10-21T20:14:13.160Z,104.88
2022-10-21T20:16:41.996Z,41.38
2022-10-21T20:19:08.513Z,60.08
2022-10-21T20:21:35.958Z,77.63
2022-10-21T20:24:02.740Z,24.52
2022-10-21T20:26:29.284Z,28.83
2022-10-21T20:28:55.720Z,15.52
2022-10-21T20:31:22.046Z,11.20
2022-10-21T20:33:49.398Z,8.75
2022-10-21T20:36:26.483Z,10.88
2022-10-21T20:38:53.715Z,5.53
2022-10-21T20:41:22.459Z,7.10
2022-10-21T20:43:49.589Z,8.82
2022-10-21T20:46:16.344Z,11.25
2022-10-21T20:48:43.795Z,7.25
2022-10-21T20:51:11.411Z,6.05
2022-10-21T20:53:40.067Z,10.25
2022-10-21T20:56:07.002Z,8.40
2022-10-21T20:58:34.047Z,8.75
2022-10-21T21:01:06.175Z,8.93
2022-10-21T21:03:32.552Z,6.50
2022-10-21T21:06:01.234Z,8.50
2022-10-21T21:08:27.570Z,9.88
2022-10-21T21:10:53.861Z,9.73
2022-10-21T21:13:20.680Z,10.27
2022-10-21T21:15:46.979Z,7.68
2022-10-21T21:18:14.030Z,7.13
2022-10-21T21:20:40.345Z,6.78
2022-10-21T21:23:06.656Z,7.65
2022-10-21T21:25:32.977Z,4.50
2022-10-21T21:27:59.357Z,7.50
2022-10-21T21:30:25.661Z,7.95
2022-10-21T21:32:51.957Z,6.15
2022-10-21T21:35:18.259Z,8.05
2022-10-21T21:37:44.558Z,9.98
2022-10-21T21:40:11.220Z,6.30
2022-10-21T21:42:37.595Z,8.43
2022-10-21T21:45:04.076Z,7.53
2022-10-21T21:47:30.386Z,8.68
2022-10-21T21:49:56.700Z,6.60
2022-10-21T21:52:24.454Z,7.18
2022-10-21T21:54:54.324Z,8.18
2022-10-21T21:57:27.831Z,7.47
2022-10-21T21:59:54.748Z,7.78
2022-10-21T22:02:21.083Z,4.82
2022-10-21T22:04:47.388Z,10.32
2022-10-21T22:07:13.821Z,7.00
2022-10-21T22:09:40.131Z,5.40
2022-10-21T22:12:06.433Z,10.15
2022-10-21T22:14:32.769Z,6.30
2022-10-21T22:16:59.410Z,6.07
2022-10-21T22:19:25.869Z,7.68
2022-10-21T22:21:52.246Z,6.18
2022-10-21T22:24:18.597Z,6.93
2022-10-21T22:26:44.932Z,4.00
2022-10-21T22:29:11.257Z,7.18
2022-10-21T22:31:37.633Z,5.72
2022-10-21T22:34:06.543Z,5.07
2022-10-21T22:36:35.684Z,8.57
2022-10-21T22:39:03.433Z,6.75
2022-10-21T22:41:29.744Z,6.75
2022-10-21T22:43:56.176Z,9.75
2022-10-21T22:46:34.335Z,6.93
2022-10-21T22:49:01.939Z,6.43
2022-10-21T22:51:28.244Z,6.82
2022-10-21T22:53:56.525Z,5.65
2022-10-21T22:56:23.468Z,9.13
2022-10-21T22:58:49.769Z,7.35
2022-10-21T23:01:16.097Z,5.82
2022-10-21T23:03:42.429Z,7.00
2022-10-21T23:06:08.852Z,6.20
2022-10-21T23:08:35.197Z,8.00
2022-10-21T23:11:01.564Z,4.72
2022-10-21T23:13:28.657Z,4.20
2022-10-21T23:15:54.971Z,5.10
2022-10-21T23:18:21.278Z,8.60
2022-10-21T23:20:47.577Z,6.22
2022-10-21T23:23:13.952Z,4.78
2022-10-21T23:25:40.636Z,12.02
2022-10-21T23:28:09.724Z,5.88
2022-10-21T23:30:36.994Z,10.68
2022-10-21T23:33:03.693Z,8.60
2022-10-21T23:35:30.028Z,7.60
2022-10-21T23:37:56.394Z,12.73
2022-10-21T23:40:22.704Z,9.63
2022-10-21T23:42:49.089Z,5.25
2022-10-21T23:45:15.409Z,7.38
2022-10-21T23:47:42.079Z,6.90
2022-10-21T23:50:09.155Z,6.65
2022-10-21T23:52:36.199Z,6.95
2022-10-21T23:55:02.840Z,6.57
2022-10-21T23:57:29.247Z,8.73
2022-10-21T23:59:55.648Z,6.20
